createdAt,value
2018-09-03T00:00:44.836Z,20.34
2018-09-03T00:01:44.881Z,20.22
2018-09-03T00:03:37.873Z,20.21
2018-09-03T00:04:37.937Z,20.26
2018-09-03T00:06:30.937Z,20.24
2018-09-03T00:07:30.992Z,20.32
2018-09-03T00:09:24.002Z,20.28
2018-09-03T00:10:24.052Z,20.40
2018-09-03T00:12:17.045Z,20.29
2018-09-03T00:13:17.108Z,20.25
2018-09-03T00:15:10.108Z,20.29
2018-09-03T00:16:10.174Z,20.32
2018-09-03T00:18:03.160Z,20.22
2018-09-03T00:19:03.219Z,20.24
2018-09-03T00:20:56.223Z,20.25
2018-09-03T00:21:56.277Z,20.29
2018-09-03T00:23:49.275Z,20.22
2018-09-03T00:24:49.334Z,20.24
2018-09-03T00:26:42.333Z,20.22
2018-09-03T00:27:42.393Z,20.19
2018-09-03T00:29:35.390Z,20.19
2018-09-03T00:30:35.448Z,20.24
2018-09-03T00:32:28.442Z,20.25
2018-09-03T00:33:28.506Z,20.16
2018-09-03T00:35:22.011Z,20.14
2018-09-03T00:36:22.073Z,20.16
2018-09-03T00:38:15.069Z,20.16
2018-09-03T00:39:15.139Z,20.16
2018-09-03T00:41:08.135Z,20.24
2018-09-03T00:42:08.190Z,20.11
2018-09-03T00:44:01.182Z,20.10
2018-09-03T00:45:01.246Z,20.16
2018-09-03T00:46:54.249Z,20.14
2018-09-03T00:47:54.301Z,20.09
2018-09-03T00:49:47.302Z,20.10
2018-09-03T00:50:47.366Z,20.14
2018-09-03T00:52:40.364Z,20.13
2018-09-03T00:53:40.425Z,20.06
2018-09-03T00:55:33.422Z,20.06
2018-09-03T00:56:33.475Z,20.06
2018-09-03T00:58:26.474Z,20.04
2018-09-03T00:59:26.535Z,20.04
2018-09-03T01:01:19.534Z,20.07
2018-09-03T01:02:19.598Z,19.96
2018-09-03T01:04:12.584Z,19.94
2018-09-03T01:05:12.648Z,19.94
2018-09-03T01:07:05.649Z,19.99
2018-09-03T01:08:05.713Z,19.95
2018-09-03T01:09:58.696Z,19.99
2018-09-03T01:10:58.758Z,19.95
2018-09-03T01:12:51.768Z,19.92
2018-09-03T01:13:51.826Z,19.95
2018-09-03T01:15:44.842Z,20.00
2018-09-03T01:16:44.891Z,19.85
2018-09-03T01:18:37.874Z,19.95
2018-09-03T01:19:37.937Z,20.02
2018-09-03T01:21:30.941Z,19.92
2018-09-03T01:22:30.991Z,19.91
2018-09-03T01:24:23.991Z,19.95
2018-09-03T01:25:24.054Z,19.86
2018-09-03T01:27:17.054Z,19.92
2018-09-03T01:28:17.114Z,19.84
2018-09-03T01:30:10.108Z,19.91
2018-09-03T01:31:10.171Z,19.99
2018-09-03T01:33:03.170Z,19.94
2018-09-03T01:34:03.224Z,19.86
2018-09-03T01:35:56.725Z,19.88
2018-09-03T01:36:56.788Z,19.88
2018-09-03T01:38:49.791Z,19.85
2018-09-03T01:39:49.844Z,19.95
2018-09-03T01:41:42.847Z,19.92
2018-09-03T01:42:42.906Z,19.95
2018-09-03T01:44:35.898Z,19.99
2018-09-03T01:45:35.961Z,19.86
2018-09-03T01:47:28.963Z,19.92
2018-09-03T01:48:29.018Z,19.88
2018-09-03T01:50:22.009Z,19.86
2018-09-03T01:51:22.072Z,19.85
2018-09-03T01:53:15.075Z,19.88
2018-09-03T01:54:15.137Z,19.85
2018-09-03T01:56:08.126Z,19.81
2018-09-03T01:57:08.191Z,19.85
2018-09-03T01:59:01.194Z,19.74
2018-09-03T02:00:01.252Z,19.71
2018-09-03T02:01:54.242Z,19.82
2018-09-03T02:02:54.305Z,19.73
2018-09-03T02:04:47.305Z,19.77
2018-09-03T02:05:47.361Z,19.66
2018-09-03T02:07:40.362Z,19.66
2018-09-03T02:08:40.418Z,19.67
2018-09-03T02:10:33.418Z,19.67
2018-09-03T02:11:33.481Z,19.59
2018-09-03T02:13:26.475Z,19.59
2018-09-03T02:14:26.539Z,19.56
2018-09-03T02:16:19.525Z,19.64
2018-09-03T02:17:19.597Z,19.64
2018-09-03T02:19:12.592Z,19.58
2018-09-03T02:20:12.650Z,19.56
2018-09-03T02:22:05.648Z,19.56
2018-09-03T02:23:05.705Z,19.62
2018-09-03T02:24:58.704Z,19.52
2018-09-03T02:25:58.765Z,19.56
2018-09-03T02:27:51.756Z,19.59
2018-09-03T02:28:51.820Z,19.52
2018-09-03T02:30:44.817Z,19.54
2018-09-03T02:31:44.881Z,19.48
2018-09-03T02:33:37.880Z,19.58
2018-09-03T02:34:37.940Z,19.56
2018-09-03T02:36:30.928Z,19.54
2018-09-03T02:37:30.990Z,19.58
2018-09-03T02:39:23.999Z,19.66
2018-09-03T02:40:24.060Z,19.59
2018-09-03T02:42:17.048Z,19.58
2018-09-03T02:43:17.112Z,19.51
2018-09-03T02:45:10.111Z,19.54
2018-09-03T02:46:10.167Z,19.47
2018-09-03T02:48:03.156Z,19.59
2018-09-03T02:49:03.231Z,19.45
2018-09-03T02:50:56.219Z,19.54
2018-09-03T02:51:56.279Z,19.54
2018-09-03T02:53:49.279Z,19.55
2018-09-03T02:54:49.337Z,19.51
2018-09-03T02:56:42.330Z,19.52
2018-09-03T02:57:42.394Z,19.49
2018-09-03T02:59:35.392Z,19.55
2018-09-03T03:00:35.448Z,19.45
2018-09-03T03:02:28.437Z,19.47
2018-09-03T03:03:28.503Z,19.37
2018-09-03T03:05:21.508Z,19.48
2018-09-03T03:06:21.566Z,19.47
2018-09-03T03:08:14.561Z,19.40
2018-09-03T03:09:14.624Z,19.49
2018-09-03T03:11:07.619Z,19.45
2018-09-03T03:12:07.676Z,19.41
2018-09-03T03:14:00.677Z,19.37
2018-09-03T03:15:00.732Z,19.44
2018-09-03T03:16:53.730Z,19.39
2018-09-03T03:17:53.795Z,19.45
2018-09-03T03:19:46.794Z,19.37
2018-09-03T03:20:46.852Z,19.34
2018-09-03T03:22:39.843Z,19.36
2018-09-03T03:23:39.910Z,19.30
2018-09-03T03:25:32.912Z,19.27
2018-09-03T03:26:32.971Z,19.19
2018-09-03T03:28:25.962Z,19.11
2018-09-03T03:29:26.023Z,19.18
2018-09-03T03:31:19.027Z,19.22
2018-09-03T03:32:19.076Z,19.21
2018-09-03T03:34:12.082Z,19.24
2018-09-03T03:35:12.136Z,19.11
2018-09-03T03:37:05.138Z,19.18
2018-09-03T03:38:05.198Z,19.18
2018-09-03T03:39:58.191Z,19.11
2018-09-03T03:40:58.244Z,19.22
2018-09-03T03:42:51.245Z,19.22
2018-09-03T03:43:51.308Z,19.12
2018-09-03T03:45:44.307Z,19.27
2018-09-03T03:46:44.361Z,19.11
2018-09-03T03:48:37.360Z,19.21
2018-09-03T03:49:37.414Z,19.09
2018-09-03T03:51:30.459Z,19.09
2018-09-03T03:52:30.468Z,19.12
2018-09-03T03:54:23.459Z,19.07
2018-09-03T03:55:23.522Z,19.16
2018-09-03T03:57:16.523Z,19.09
2018-09-03T03:58:16.577Z,19.09
2018-09-03T04:00:09.570Z,19.08
2018-09-03T04:01:09.632Z,19.04
2018-09-03T04:03:02.633Z,19.11
2018-09-03T04:04:02.754Z,19.12
2018-09-03T04:05:55.690Z,19.11
2018-09-03T04:06:55.742Z,19.08
2018-09-03T04:08:48.735Z,19.12
2018-09-03T04:09:48.799Z,19.09
2018-09-03T04:11:41.803Z,19.15
2018-09-03T04:12:41.854Z,19.12
2018-09-03T04:14:34.852Z,19.12
2018-09-03T04:15:34.906Z,19.11
2018-09-03T04:17:27.906Z,19.11
2018-09-03T04:18:27.962Z,19.09
2018-09-03T04:20:20.953Z,19.11
2018-09-03T04:21:21.017Z,19.00
2018-09-03T04:23:14.145Z,19.07
2018-09-03T04:24:14.068Z,18.96
2018-09-03T04:26:07.068Z,18.96
2018-09-03T04:27:07.126Z,18.84
2018-09-03T04:29:00.127Z,18.95
2018-09-03T04:30:00.186Z,18.90
2018-09-03T04:31:53.183Z,18.92
2018-09-03T04:32:53.239Z,18.93
2018-09-03T04:34:46.237Z,18.92
2018-09-03T04:35:46.295Z,18.92
2018-09-03T04:37:39.295Z,18.89
2018-09-03T04:38:39.401Z,19.02
2018-09-03T04:40:32.345Z,18.83
2018-09-03T04:41:32.407Z,18.99
2018-09-03T04:43:25.406Z,18.99
2018-09-03T04:44:25.504Z,18.98
2018-09-03T04:46:18.449Z,18.95
2018-09-03T04:47:18.511Z,18.90
2018-09-03T04:49:11.510Z,18.93
2018-09-03T04:50:11.565Z,18.89
2018-09-03T04:52:04.576Z,18.98
2018-09-03T04:53:04.621Z,18.90
2018-09-03T04:54:57.610Z,18.88
2018-09-03T04:55:57.675Z,18.86
2018-09-03T04:57:50.672Z,18.90
2018-09-03T04:58:50.730Z,18.86
2018-09-03T05:00:43.720Z,18.93
2018-09-03T05:01:43.789Z,18.86
2018-09-03T05:03:36.782Z,18.88
2018-09-03T05:04:36.836Z,18.89
2018-09-03T05:06:29.826Z,18.90
2018-09-03T05:07:29.889Z,18.89
2018-09-03T05:09:22.893Z,18.93
2018-09-03T05:10:22.942Z,18.95
2018-09-03T05:12:15.931Z,18.96
2018-09-03T05:13:15.995Z,18.93
2018-09-03T05:15:08.991Z,18.92
2018-09-03T05:16:09.050Z,18.99
2018-09-03T05:18:02.048Z,18.92
2018-09-03T05:19:02.101Z,18.88
2018-09-03T05:20:55.094Z,18.93
2018-09-03T05:21:55.155Z,18.95
2018-09-03T05:23:48.153Z,18.88
2018-09-03T05:24:48.208Z,18.88
2018-09-03T05:26:41.202Z,19.02
2018-09-03T05:27:41.264Z,18.98
2018-09-03T05:29:34.267Z,18.95
2018-09-03T05:30:34.326Z,18.99
2018-09-03T05:32:27.323Z,18.96
2018-09-03T05:33:27.381Z,19.00
2018-09-03T05:35:20.381Z,18.96
2018-09-03T05:36:20.436Z,19.02
2018-09-03T05:38:13.443Z,19.04
2018-09-03T05:39:13.498Z,19.11
2018-09-03T05:41:06.496Z,19.11
2018-09-03T05:42:06.554Z,19.09
2018-09-03T05:43:59.571Z,19.11
2018-09-03T05:44:59.611Z,19.09
2018-09-03T05:46:52.597Z,19.09
2018-09-03T05:47:52.661Z,19.09
2018-09-03T05:49:45.660Z,19.09
2018-09-03T05:50:45.750Z,19.04
2018-09-03T05:52:38.708Z,19.16
2018-09-03T05:53:38.771Z,19.14
2018-09-03T05:55:31.768Z,19.12
2018-09-03T05:56:31.824Z,19.14
2018-09-03T05:58:24.813Z,19.15
2018-09-03T05:59:24.879Z,19.16
2018-09-03T06:01:17.874Z,19.14
2018-09-03T06:02:17.931Z,19.22
2018-09-03T06:04:10.929Z,19.29
2018-09-03T06:05:10.987Z,19.24
2018-09-03T06:07:03.995Z,19.34
2018-09-03T06:08:04.040Z,19.30
2018-09-03T06:09:57.038Z,19.18
2018-09-03T06:10:57.141Z,19.26
2018-09-03T06:12:50.085Z,19.26
2018-09-03T06:13:50.148Z,19.21
2018-09-03T06:15:43.146Z,19.21
2018-09-03T06:16:43.204Z,19.21
2018-09-03T06:18:36.192Z,19.21
2018-09-03T06:19:36.254Z,19.21
2018-09-03T06:21:29.253Z,19.09
2018-09-03T06:22:29.310Z,19.19
2018-09-03T06:24:22.331Z,19.18
2018-09-03T06:25:22.379Z,19.11
2018-09-03T06:27:15.372Z,19.09
2018-09-03T06:28:15.434Z,19.12
2018-09-03T06:30:08.431Z,19.14
2018-09-03T06:31:08.489Z,19.29
2018-09-03T06:33:01.479Z,19.14
2018-09-03T06:34:01.541Z,19.21
2018-09-03T06:35:54.574Z,19.29
2018-09-03T06:36:54.598Z,19.16
2018-09-03T06:38:47.592Z,19.21
2018-09-03T06:39:47.651Z,19.26
2018-09-03T06:41:40.651Z,19.30
2018-09-03T06:42:40.705Z,19.26
2018-09-03T06:44:33.694Z,19.26
2018-09-03T06:45:33.757Z,19.34
2018-09-03T06:47:26.750Z,19.33
2018-09-03T06:48:26.809Z,19.27
2018-09-03T06:50:19.804Z,19.34
2018-09-03T06:51:19.861Z,19.33
2018-09-03T06:53:12.851Z,19.47
2018-09-03T06:54:12.915Z,19.45
2018-09-03T06:56:05.910Z,19.41
2018-09-03T06:57:05.967Z,19.45
2018-09-03T06:58:58.959Z,19.45
2018-09-03T06:59:59.020Z,19.48
2018-09-03T07:01:52.021Z,19.45
2018-09-03T07:02:52.075Z,19.52
2018-09-03T07:04:45.071Z,19.54
2018-09-03T07:05:45.131Z,19.59
2018-09-03T07:07:38.123Z,19.56
2018-09-03T07:08:38.183Z,19.52
2018-09-03T07:10:31.179Z,19.56
2018-09-03T07:11:31.238Z,19.41
2018-09-03T07:13:24.234Z,19.48
2018-09-03T07:14:24.297Z,19.44
2018-09-03T07:16:17.292Z,19.47
2018-09-03T07:17:17.344Z,19.44
2018-09-03T07:19:10.333Z,19.48
2018-09-03T07:20:10.398Z,19.40
2018-09-03T07:22:03.396Z,19.47
2018-09-03T07:23:03.452Z,19.45
2018-09-03T07:24:56.452Z,19.51
2018-09-03T07:25:56.518Z,19.40
2018-09-03T07:27:49.511Z,19.39
2018-09-03T07:28:49.613Z,19.47
2018-09-03T07:30:42.564Z,19.41
2018-09-03T07:31:42.633Z,19.39
2018-09-03T07:33:35.625Z,19.56
2018-09-03T07:34:35.682Z,19.55
2018-09-03T07:36:28.684Z,19.56
2018-09-03T07:37:28.737Z,19.44
2018-09-03T07:39:21.740Z,19.47
2018-09-03T07:40:21.800Z,19.48
2018-09-03T07:42:14.800Z,19.36
2018-09-03T07:43:14.859Z,19.41
2018-09-03T07:45:07.853Z,19.39
2018-09-03T07:46:07.915Z,19.44
2018-09-03T07:48:00.916Z,19.41
2018-09-03T07:49:00.982Z,19.47
2018-09-03T07:50:53.975Z,19.55
2018-09-03T07:51:54.033Z,19.58
2018-09-03T07:53:47.026Z,19.84
2018-09-03T07:54:47.087Z,19.94
2018-09-03T07:56:40.084Z,19.89
2018-09-03T07:57:40.146Z,20.00
2018-09-03T07:59:33.141Z,19.94
2018-09-03T08:00:33.200Z,19.92
2018-09-03T08:02:26.197Z,20.06
2018-09-03T08:03:26.255Z,20.02
2018-09-03T08:05:19.260Z,20.24
2018-09-03T08:06:19.325Z,20.24
2018-09-03T08:08:12.319Z,20.28
2018-09-03T08:09:12.377Z,20.29
2018-09-03T08:11:05.368Z,20.26
2018-09-03T08:12:05.433Z,20.22
2018-09-03T08:13:58.435Z,20.44
2018-09-03T08:14:58.487Z,20.41
2018-09-03T08:16:51.479Z,20.21
2018-09-03T08:17:51.543Z,20.44
2018-09-03T08:19:44.556Z,20.39
2018-09-03T08:20:44.606Z,20.55
2018-09-03T08:22:38.096Z,20.84
2018-09-03T08:23:38.163Z,21.02
2018-09-03T08:25:31.165Z,21.33
2018-09-03T08:26:31.219Z,21.35
2018-09-03T08:28:24.237Z,22.57
2018-09-03T08:29:24.279Z,22.93
2018-09-03T08:31:17.282Z,23.32
2018-09-03T08:32:17.338Z,23.31
2018-09-03T08:34:10.347Z,23.12
2018-09-03T08:35:10.406Z,23.00
2018-09-03T08:37:03.426Z,22.70
2018-09-03T08:38:03.468Z,22.50
2018-09-03T08:39:56.523Z,22.51
2018-09-03T08:40:56.527Z,22.43
2018-09-03T08:42:49.521Z,22.20
2018-09-03T08:43:49.586Z,22.14
2018-09-03T08:45:42.587Z,21.89
2018-09-03T08:46:42.648Z,21.73
2018-09-03T08:48:35.651Z,21.82
2018-09-03T08:49:35.707Z,21.64
2018-09-03T08:51:28.701Z,21.73
2018-09-03T08:52:28.765Z,21.57
2018-09-03T08:54:21.766Z,21.75
2018-09-03T08:55:21.825Z,21.76
2018-09-03T08:57:14.818Z,22.04
2018-09-03T08:58:14.883Z,22.14
2018-09-03T09:00:07.883Z,22.50
2018-09-03T09:01:07.941Z,22.80
2018-09-03T09:03:00.936Z,23.23
2018-09-03T09:04:01.002Z,23.27
2018-09-03T09:05:54.103Z,24.65
2018-09-03T09:06:54.061Z,24.48
2018-09-03T09:08:47.056Z,25.40
2018-09-03T09:09:47.126Z,25.50
2018-09-03T09:11:40.145Z,25.26
2018-09-03T09:12:40.184Z,24.93
2018-09-03T09:14:33.188Z,24.36
2018-09-03T09:15:33.247Z,24.33
2018-09-03T09:17:26.748Z,24.60
2018-09-03T09:18:26.814Z,24.63
2018-09-03T09:20:19.821Z,24.60
2018-09-03T09:21:19.878Z,24.54
2018-09-03T09:23:13.385Z,24.45
2018-09-03T09:24:13.450Z,24.24
2018-09-03T09:26:06.455Z,24.26
2018-09-03T09:27:06.522Z,24.28
2018-09-03T09:28:59.520Z,24.24
2018-09-03T09:29:59.582Z,24.20
2018-09-03T09:31:52.585Z,24.30
2018-09-03T09:32:52.648Z,24.53
2018-09-03T09:34:45.651Z,24.39
2018-09-03T09:35:45.739Z,24.21
2018-09-03T09:37:38.721Z,24.20
2018-09-03T09:38:38.834Z,24.26
2018-09-03T09:40:31.787Z,24.35
2018-09-03T09:41:31.895Z,24.23
2018-09-03T09:43:24.844Z,24.24
2018-09-03T09:44:24.913Z,24.33
2018-09-03T09:46:17.916Z,24.45
2018-09-03T09:47:17.978Z,24.45
2018-09-03T09:49:10.973Z,24.20
2018-09-03T09:50:11.043Z,24.11
2018-09-03T09:52:04.043Z,24.29
2018-09-03T09:53:04.110Z,24.18
2018-09-03T09:54:57.180Z,24.32
2018-09-03T09:55:57.169Z,24.20
2018-09-03T09:57:50.172Z,24.24
2018-09-03T09:58:50.231Z,24.23
2018-09-03T10:00:43.236Z,24.32
2018-09-03T10:01:43.299Z,24.24
2018-09-03T10:03:36.295Z,24.10
2018-09-03T10:04:36.360Z,24.14
2018-09-03T10:06:29.362Z,24.28
2018-09-03T10:07:29.424Z,24.45
2018-09-03T10:09:22.425Z,24.40
2018-09-03T10:10:22.489Z,24.32
2018-09-03T10:12:15.492Z,24.40
2018-09-03T10:13:15.551Z,24.54
2018-09-03T10:15:08.556Z,24.51
2018-09-03T10:16:08.623Z,24.48
2018-09-03T10:18:01.633Z,24.48
2018-09-03T10:19:01.694Z,24.54
2018-09-03T10:20:54.727Z,24.65
2018-09-03T10:21:54.755Z,24.66
2018-09-03T10:23:47.754Z,24.96
2018-09-03T10:24:47.820Z,25.01
2018-09-03T10:26:40.823Z,25.06
2018-09-03T10:27:40.886Z,25.10
2018-09-03T10:29:33.881Z,24.93
2018-09-03T10:30:33.951Z,25.14
2018-09-03T10:32:26.953Z,25.31
2018-09-03T10:33:27.012Z,25.32
2018-09-03T10:35:20.011Z,25.46
2018-09-03T10:36:20.077Z,25.66
2018-09-03T10:38:13.136Z,25.35
2018-09-03T10:39:13.140Z,25.08
2018-09-03T10:41:06.138Z,24.84
2018-09-03T10:42:06.206Z,24.74
2018-09-03T10:43:59.208Z,25.03
2018-09-03T10:44:59.269Z,24.89
2018-09-03T10:46:52.349Z,25.03
2018-09-03T10:47:52.341Z,25.23
2018-09-03T10:49:45.354Z,24.98
2018-09-03T10:50:45.406Z,24.98
2018-09-03T10:52:38.413Z,24.76
2018-09-03T10:53:38.479Z,24.92
2018-09-03T10:55:31.479Z,25.08
2018-09-03T10:56:31.542Z,25.10
2018-09-03T10:58:24.545Z,25.22
2018-09-03T10:59:24.606Z,25.32
2018-09-03T11:01:17.603Z,25.44
2018-09-03T11:02:17.670Z,25.33
2018-09-03T11:04:10.677Z,25.28
2018-09-03T11:05:10.747Z,25.31
2018-09-03T11:07:03.739Z,25.23
2018-09-03T11:08:03.814Z,25.18
2018-09-03T11:09:56.807Z,25.04
2018-09-03T11:10:56.871Z,24.95
2018-09-03T11:12:49.872Z,24.93
2018-09-03T11:13:49.932Z,24.89
2018-09-03T11:15:42.935Z,24.60
2018-09-03T11:16:43.000Z,24.54
2018-09-03T11:18:36.006Z,24.58
2018-09-03T11:19:36.084Z,24.55
2018-09-03T11:21:29.197Z,24.58
2018-09-03T11:22:29.173Z,24.57
2018-09-03T11:24:22.135Z,24.86
2018-09-03T11:25:22.196Z,24.85
2018-09-03T11:27:15.192Z,24.78
2018-09-03T11:28:15.259Z,24.93
2018-09-03T11:30:08.262Z,24.66
2018-09-03T11:31:08.331Z,24.78
2018-09-03T11:33:01.326Z,24.98
2018-09-03T11:34:01.395Z,25.04
2018-09-03T11:35:54.525Z,25.13
2018-09-03T11:36:54.592Z,25.22
2018-09-03T11:38:47.588Z,25.23
2018-09-03T11:39:47.649Z,25.38
2018-09-03T11:41:40.646Z,25.44
2018-09-03T11:42:40.714Z,25.46
2018-09-03T11:44:33.716Z,25.47
2018-09-03T11:45:33.777Z,25.68
2018-09-03T11:47:26.787Z,25.72
2018-09-03T11:48:26.851Z,25.53
2018-09-03T11:50:19.858Z,25.63
2018-09-03T11:51:19.917Z,25.70
2018-09-03T11:53:12.917Z,25.40
2018-09-03T11:54:12.984Z,25.35
2018-09-03T11:56:05.991Z,25.54
2018-09-03T11:57:06.057Z,25.43
2018-09-03T11:58:59.071Z,25.66
2018-09-03T11:59:59.121Z,25.47
2018-09-03T12:01:52.126Z,25.48
2018-09-03T12:02:52.193Z,25.48
2018-09-03T12:04:45.193Z,25.68
2018-09-03T12:05:45.257Z,25.84
2018-09-03T12:07:38.258Z,26.05
2018-09-03T12:08:38.319Z,26.03
2018-09-03T12:10:31.324Z,26.00
2018-09-03T12:11:31.387Z,26.05
2018-09-03T12:13:24.387Z,25.83
2018-09-03T12:14:24.457Z,25.91
2018-09-03T12:16:17.462Z,26.06
2018-09-03T12:17:17.522Z,26.21
2018-09-03T12:19:10.528Z,26.06
2018-09-03T12:20:10.596Z,26.13
2018-09-03T12:22:03.600Z,26.22
2018-09-03T12:23:03.659Z,26.23
2018-09-03T12:24:56.665Z,26.21
2018-09-03T12:25:56.725Z,26.21
2018-09-03T12:27:49.725Z,25.91
2018-09-03T12:28:49.792Z,26.05
2018-09-03T12:30:42.795Z,25.91
2018-09-03T12:31:42.858Z,26.07
2018-09-03T12:33:35.860Z,26.28
2018-09-03T12:34:35.925Z,26.44
2018-09-03T12:36:28.928Z,26.56
2018-09-03T12:37:28.992Z,26.58
2018-09-03T12:39:21.988Z,26.58
2018-09-03T12:40:22.063Z,26.70
2018-09-03T12:42:15.066Z,26.52
2018-09-03T12:43:15.127Z,26.44
2018-09-03T12:45:08.149Z,26.74
2018-09-03T12:46:08.193Z,26.66
2018-09-03T12:48:01.193Z,26.44
2018-09-03T12:49:01.261Z,26.48
2018-09-03T12:50:54.267Z,26.43
2018-09-03T12:51:54.330Z,26.25
2018-09-03T12:53:47.336Z,26.19
2018-09-03T12:54:47.405Z,25.96
2018-09-03T12:56:40.412Z,25.73
2018-09-03T12:57:40.471Z,25.85
2018-09-03T12:59:33.470Z,26.00
2018-09-03T13:00:38.675Z,25.93
2018-09-03T13:02:26.543Z,25.95
2018-09-03T13:03:26.606Z,25.98
2018-09-03T13:05:19.606Z,25.84
2018-09-03T13:06:19.688Z,25.90
2018-09-03T13:08:12.675Z,25.88
2018-09-03T13:09:12.739Z,25.85
2018-09-03T13:11:05.742Z,25.93
2018-09-03T13:12:05.806Z,25.91
2018-09-03T13:13:58.809Z,25.95
2018-09-03T13:14:58.871Z,25.90
2018-09-03T13:16:51.880Z,25.90
2018-09-03T13:17:51.940Z,25.75
2018-09-03T13:19:44.944Z,25.77
2018-09-03T13:20:45.008Z,25.78
2018-09-03T13:22:38.012Z,25.70
2018-09-03T13:23:38.076Z,25.77
2018-09-03T13:25:31.072Z,25.75
2018-09-03T13:26:31.138Z,25.78
2018-09-03T13:28:24.144Z,25.68
2018-09-03T13:29:24.205Z,25.72
2018-09-03T13:31:17.210Z,25.77
2018-09-03T13:32:17.270Z,25.84
2018-09-03T13:34:10.273Z,25.81
2018-09-03T13:35:10.339Z,25.83
2018-09-03T13:37:03.340Z,26.00
2018-09-03T13:38:03.403Z,26.07
2018-09-03T13:39:56.453Z,25.80
2018-09-03T13:40:56.472Z,25.77
2018-09-03T13:42:49.472Z,25.72
2018-09-03T13:43:49.534Z,25.75
2018-09-03T13:45:42.544Z,25.84
2018-09-03T13:46:42.604Z,25.72
2018-09-03T13:48:35.610Z,25.78
2018-09-03T13:49:35.673Z,25.85
2018-09-03T13:51:28.731Z,25.93
2018-09-03T13:52:28.751Z,26.03
2018-09-03T13:54:21.754Z,26.05
2018-09-03T13:55:21.816Z,26.03
2018-09-03T13:57:14.819Z,26.03
2018-09-03T13:58:14.882Z,26.16
2018-09-03T14:00:07.879Z,26.05
2018-09-03T14:01:07.949Z,25.96
2018-09-03T14:03:00.952Z,25.96
2018-09-03T14:04:01.013Z,26.00
2018-09-03T14:05:54.011Z,26.02
2018-09-03T14:06:54.083Z,25.96
2018-09-03T14:08:47.084Z,25.88
2018-09-03T14:09:47.207Z,25.91
2018-09-03T14:11:40.157Z,25.98
2018-09-03T14:12:40.211Z,25.98
2018-09-03T14:14:33.219Z,25.73
2018-09-03T14:15:33.298Z,25.66
2018-09-03T14:17:26.276Z,25.63
2018-09-03T14:18:26.347Z,25.54
2018-09-03T14:20:19.352Z,25.63
2018-09-03T14:21:19.413Z,25.63
2018-09-03T14:23:12.939Z,25.53
2018-09-03T14:24:12.986Z,25.47
2018-09-03T14:26:05.985Z,25.53
2018-09-03T14:27:06.057Z,25.41
2018-09-03T14:28:59.055Z,25.25
2018-09-03T14:29:59.121Z,25.18
2018-09-03T14:31:52.122Z,25.10
2018-09-03T14:32:52.182Z,25.16
2018-09-03T14:34:45.187Z,25.06
2018-09-03T14:35:45.248Z,25.06
2018-09-03T14:37:38.244Z,25.04
2018-09-03T14:38:38.355Z,25.04
2018-09-03T14:40:31.316Z,25.03
2018-09-03T14:41:31.376Z,25.10
2018-09-03T14:43:24.387Z,25.23
2018-09-03T14:44:24.442Z,25.22
2018-09-03T14:46:17.447Z,25.25
2018-09-03T14:47:17.508Z,25.25
2018-09-03T14:49:10.510Z,25.07
2018-09-03T14:50:10.572Z,24.92
2018-09-03T14:52:03.569Z,24.91
2018-09-03T14:53:03.636Z,24.95
2018-09-03T14:54:56.642Z,24.84
2018-09-03T14:55:56.699Z,24.85
2018-09-03T14:57:49.701Z,24.84
2018-09-03T14:58:49.763Z,24.86
2018-09-03T15:00:42.771Z,24.78
2018-09-03T15:01:42.836Z,24.78
2018-09-03T15:03:35.831Z,24.78
2018-09-03T15:04:36.192Z,24.78
2018-09-03T15:06:28.900Z,24.93
2018-09-03T15:07:28.961Z,24.92
2018-09-03T15:09:21.974Z,25.07
2018-09-03T15:10:22.025Z,25.06
2018-09-03T15:12:15.021Z,25.04
2018-09-03T15:13:15.087Z,25.04
2018-09-03T15:15:08.212Z,25.06
2018-09-03T15:16:08.151Z,24.93
2018-09-03T15:18:01.150Z,24.99
2018-09-03T15:19:01.215Z,24.86
2018-09-03T15:20:54.218Z,24.93
2018-09-03T15:21:54.279Z,24.91
2018-09-03T15:23:47.278Z,24.92
2018-09-03T15:24:47.344Z,24.81
2018-09-03T15:26:40.449Z,24.84
2018-09-03T15:27:40.421Z,24.84
2018-09-03T15:29:33.426Z,24.78
2018-09-03T15:30:33.472Z,24.80
2018-09-03T15:32:26.478Z,24.74
2018-09-03T15:33:26.539Z,24.61
2018-09-03T15:35:19.545Z,24.55
2018-09-03T15:36:19.656Z,24.53
2018-09-03T15:38:12.606Z,24.53
2018-09-03T15:39:12.669Z,24.42
2018-09-03T15:41:05.677Z,24.48
2018-09-03T15:42:05.748Z,24.54
2018-09-03T15:43:58.742Z,24.54
2018-09-03T15:44:58.800Z,24.53
2018-09-03T15:46:51.812Z,24.54
2018-09-03T15:47:51.874Z,24.50
2018-09-03T15:49:44.871Z,24.51
2018-09-03T15:50:44.939Z,24.48
2018-09-03T15:52:37.940Z,24.55
2018-09-03T15:53:38.003Z,24.51
2018-09-03T15:55:30.997Z,24.54
2018-09-03T15:56:31.065Z,24.65
2018-09-03T15:58:24.068Z,24.55
2018-09-03T15:59:24.126Z,24.57
2018-09-03T16:01:17.127Z,24.50
2018-09-03T16:02:17.193Z,24.48
2018-09-03T16:04:10.694Z,24.47
2018-09-03T16:05:10.762Z,24.45
2018-09-03T16:07:03.769Z,24.40
2018-09-03T16:08:03.831Z,24.35
2018-09-03T16:09:56.824Z,24.35
2018-09-03T16:10:56.892Z,24.23
2018-09-03T16:12:49.904Z,24.23
2018-09-03T16:13:49.957Z,24.28
2018-09-03T16:15:42.970Z,24.23
2018-09-03T16:16:43.020Z,24.28
2018-09-03T16:18:36.025Z,24.26
2018-09-03T16:19:36.089Z,24.28
2018-09-03T16:21:29.103Z,24.32
2018-09-03T16:22:29.150Z,24.38
2018-09-03T16:24:22.166Z,24.26
2018-09-03T16:25:22.218Z,24.23
2018-09-03T16:27:15.251Z,24.30
2018-09-03T16:28:15.281Z,24.33
2018-09-03T16:30:08.276Z,24.38
2018-09-03T16:31:08.343Z,24.40
2018-09-03T16:33:01.346Z,24.48
2018-09-03T16:34:01.408Z,24.42
2018-09-03T16:35:54.494Z,24.36
2018-09-03T16:36:54.474Z,24.36
2018-09-03T16:38:47.535Z,24.32
2018-09-03T16:39:47.538Z,24.38
2018-09-03T16:41:40.534Z,24.36
2018-09-03T16:42:40.608Z,24.38
2018-09-03T16:44:33.611Z,24.28
2018-09-03T16:45:33.664Z,24.35
2018-09-03T16:47:26.681Z,24.48
2018-09-03T16:48:26.725Z,24.43
2018-09-03T16:50:19.730Z,24.45
2018-09-03T16:51:19.790Z,24.43
2018-09-03T16:53:12.791Z,24.33
2018-09-03T16:54:12.852Z,24.38
2018-09-03T16:56:05.859Z,24.40
2018-09-03T16:57:05.922Z,24.51
2018-09-03T16:58:58.930Z,24.50
2018-09-03T16:59:58.987Z,24.42
2018-09-03T17:01:51.990Z,24.48
2018-09-03T17:02:52.054Z,24.48
2018-09-03T17:04:45.564Z,24.42
2018-09-03T17:05:45.622Z,24.38
2018-09-03T17:07:38.762Z,24.45
2018-09-03T17:08:38.688Z,24.54
2018-09-03T17:10:31.686Z,24.43
2018-09-03T17:11:31.748Z,24.42
2018-09-03T17:13:24.791Z,24.38
2018-09-03T17:14:24.813Z,24.29
2018-09-03T17:16:17.809Z,24.30
2018-09-03T17:17:17.875Z,24.36
2018-09-03T17:19:10.877Z,24.38
2018-09-03T17:20:10.940Z,24.39
2018-09-03T17:22:03.934Z,24.28
2018-09-03T17:23:03.999Z,24.32
2018-09-03T17:24:57.002Z,24.24
2018-09-03T17:25:57.062Z,24.21
2018-09-03T17:27:50.057Z,24.20
2018-09-03T17:28:50.209Z,24.16
2018-09-03T17:30:43.125Z,24.13
2018-09-03T17:31:43.340Z,24.11
2018-09-03T17:33:36.187Z,24.20
2018-09-03T17:34:36.247Z,24.14
2018-09-03T17:36:29.242Z,23.99
2018-09-03T17:37:29.313Z,24.02
2018-09-03T17:39:22.310Z,23.96
2018-09-03T17:40:22.371Z,23.98
2018-09-03T17:42:15.368Z,23.84
2018-09-03T17:43:15.436Z,23.86
2018-09-03T17:45:08.440Z,23.81
2018-09-03T17:46:08.499Z,23.74
2018-09-03T17:48:01.494Z,23.68
2018-09-03T17:49:01.568Z,23.65
2018-09-03T17:50:54.568Z,23.56
2018-09-03T17:51:54.620Z,23.61
2018-09-03T17:53:47.616Z,23.50
2018-09-03T17:54:47.682Z,23.43
2018-09-03T17:56:40.689Z,23.40
2018-09-03T17:57:40.750Z,23.36
2018-09-03T17:59:33.750Z,23.36
2018-09-03T18:00:33.808Z,23.28
2018-09-03T18:02:26.806Z,23.17
2018-09-03T18:03:26.875Z,23.20
2018-09-03T18:05:19.879Z,23.10
2018-09-03T18:06:19.944Z,22.99
2018-09-03T18:08:12.952Z,22.96
2018-09-03T18:09:13.000Z,23.00
2018-09-03T18:11:06.002Z,23.02
2018-09-03T18:12:06.061Z,22.94
2018-09-03T18:13:59.054Z,22.87
2018-09-03T18:14:59.122Z,22.81
2018-09-03T18:16:52.122Z,22.85
2018-09-03T18:17:52.181Z,22.78
2018-09-03T18:19:45.171Z,22.78
2018-09-03T18:20:45.239Z,22.81
2018-09-03T18:22:38.241Z,22.72
2018-09-03T18:23:38.299Z,22.78
2018-09-03T18:25:31.302Z,22.68
2018-09-03T18:26:31.360Z,22.72
2018-09-03T18:28:24.357Z,22.70
2018-09-03T18:29:24.420Z,22.63
2018-09-03T18:31:17.423Z,22.66
2018-09-03T18:32:17.482Z,22.63
2018-09-03T18:34:10.483Z,22.65